AAL1120 KABQ-KTUS
Flight info
| Callsign | AAL1120 |
|---|---|
| Flight time | 1h 4m |
| Altitude | 30000 |
| Route | LARGO3 ABQ ONM J104 SSO ZONNA2 |
| Aircraft | B738/M-SDE2E3FGHIRWXY/LB1 |
Departure
| Time | 2026-04-23 15:28 |
|---|---|
| Airport | Albuquerque International Sunport (KABQ) |
Arrival
| Time | 2026-04-23 16:32 |
|---|---|
| Airport | Tucson International Airport (KTUS) |
| Time | Latitude | Longitude | Altitude | Speed | Heading |
|---|---|---|---|---|---|
| 2026-04-23 15:09 | 35.04686 | -106.61540 | 5326 ft | 0 kts | 11° |
| 2026-04-23 15:16 | 35.04682 | -106.61540 | 5327 ft | 1 kts | 354° |
| 2026-04-23 15:16 | 35.04668 | -106.61535 | 5327 ft | 2 kts | 347° |
| 2026-04-23 15:17 | 35.04659 | -106.61533 | 5327 ft | 0 kts | 21° |
| 2026-04-23 15:17 | 35.04655 | -106.61538 | 5327 ft | 0 kts | 73° |
| 2026-04-23 15:17 | 35.04654 | -106.61544 | 5327 ft | 0 kts | 91° |
| 2026-04-23 15:17 | 35.04654 | -106.61548 | 5327 ft | 0 kts | 86° |
| 2026-04-23 15:20 | 35.04653 | -106.61540 | 5327 ft | 4 kts | 107° |
| 2026-04-23 15:20 | 35.04625 | -106.61504 | 5327 ft | 8 kts | 139° |
| 2026-04-23 15:20 | 35.04578 | -106.61451 | 5327 ft | 8 kts | 131° |
| 2026-04-23 15:21 | 35.04565 | -106.61362 | 5328 ft | 12 kts | 72° |
| 2026-04-23 15:21 | 35.04580 | -106.61274 | 5330 ft | 9 kts | 89° |
| 2026-04-23 15:21 | 35.04580 | -106.61178 | 5330 ft | 12 kts | 90° |
| 2026-04-23 15:21 | 35.04579 | -106.61060 | 5329 ft | 15 kts | 90° |
| 2026-04-23 15:22 | 35.04578 | -106.60921 | 5329 ft | 17 kts | 90° |
| 2026-04-23 15:22 | 35.04577 | -106.60767 | 5330 ft | 19 kts | 90° |
| 2026-04-23 15:22 | 35.04577 | -106.60594 | 5332 ft | 20 kts | 90° |
| 2026-04-23 15:22 | 35.04575 | -106.60419 | 5332 ft | 20 kts | 90° |
| 2026-04-23 15:23 | 35.04574 | -106.60243 | 5333 ft | 20 kts | 90° |
| 2026-04-23 15:23 | 35.04573 | -106.60072 | 5333 ft | 19 kts | 90° |
| 2026-04-23 15:23 | 35.04578 | -106.59910 | 5335 ft | 17 kts | 84° |
| 2026-04-23 15:23 | 35.04584 | -106.59768 | 5336 ft | 16 kts | 90° |
| 2026-04-23 15:24 | 35.04583 | -106.59635 | 5336 ft | 15 kts | 90° |
| 2026-04-23 15:24 | 35.04582 | -106.59473 | 5337 ft | 24 kts | 90° |
| 2026-04-23 15:24 | 35.04581 | -106.59238 | 5340 ft | 31 kts | 89° |
| 2026-04-23 15:24 | 35.04579 | -106.58956 | 5343 ft | 34 kts | 90° |
| 2026-04-23 15:25 | 35.04577 | -106.58675 | 5347 ft | 31 kts | 90° |
| 2026-04-23 15:25 | 35.04575 | -106.58420 | 5350 ft | 29 kts | 90° |
| 2026-04-23 15:25 | 35.04574 | -106.58186 | 5355 ft | 26 kts | 90° |
| 2026-04-23 15:25 | 35.04573 | -106.57977 | 5358 ft | 23 kts | 90° |
| 2026-04-23 15:26 | 35.04572 | -106.57793 | 5361 ft | 18 kts | 90° |
| 2026-04-23 15:26 | 35.04570 | -106.57649 | 5364 ft | 15 kts | 98° |
| 2026-04-23 15:26 | 35.04509 | -106.57573 | 5364 ft | 11 kts | 171° |
| 2026-04-23 15:26 | 35.04435 | -106.57599 | 5364 ft | 10 kts | 217° |
| 2026-04-23 15:27 | 35.04408 | -106.57693 | 5362 ft | 19 kts | 269° |
| 2026-04-23 15:27 | 35.04410 | -106.58192 | 5353 ft | 98 kts | 270° |
| 2026-04-23 15:27 | 35.04417 | -106.59335 | 5341 ft | 166 kts | 269° |
| 2026-04-23 15:27 | 35.04434 | -106.60775 | 5950 ft | 178 kts | 269° |
| 2026-04-23 15:28 | 35.04435 | -106.62288 | 6827 ft | 182 kts | 268° |
| 2026-04-23 15:28 | 35.04421 | -106.63821 | 7566 ft | 186 kts | 269° |
| 2026-04-23 15:28 | 35.04417 | -106.65421 | 8200 ft | 195 kts | 270° |
| 2026-04-23 15:28 | 35.04415 | -106.67097 | 8830 ft | 205 kts | 271° |
| 2026-04-23 15:29 | 35.04414 | -106.68858 | 9451 ft | 215 kts | 271° |
| 2026-04-23 15:29 | 35.04412 | -106.70699 | 10093 ft | 223 kts | 271° |
| 2026-04-23 15:29 | 35.04408 | -106.72656 | 10595 ft | 240 kts | 271° |
| 2026-04-23 15:29 | 35.04395 | -106.74728 | 11274 ft | 252 kts | 269° |
| 2026-04-23 15:30 | 35.04157 | -106.76824 | 12184 ft | 257 kts | 255° |
| 2026-04-23 15:30 | 35.03312 | -106.78799 | 12881 ft | 273 kts | 235° |
| 2026-04-23 15:30 | 35.01876 | -106.80383 | 13601 ft | 290 kts | 220° |
| 2026-04-23 15:30 | 35.00023 | -106.81526 | 14177 ft | 314 kts | 205° |
| 2026-04-23 15:31 | 34.97768 | -106.81968 | 14704 ft | 340 kts | 191° |
| 2026-04-23 15:31 | 34.95363 | -106.81998 | 15298 ft | 356 kts | 187° |
| 2026-04-23 15:31 | 34.92845 | -106.81914 | 16114 ft | 362 kts | 186° |
| 2026-04-23 15:31 | 34.90349 | -106.81824 | 16988 ft | 365 kts | 187° |
| 2026-04-23 15:32 | 34.87790 | -106.81773 | 17745 ft | 370 kts | 189° |
| 2026-04-23 15:32 | 34.85244 | -106.81756 | 18589 ft | 372 kts | 189° |
| 2026-04-23 15:32 | 34.82638 | -106.81760 | 19420 ft | 374 kts | 189° |
| 2026-04-23 15:32 | 34.80022 | -106.81773 | 20177 ft | 378 kts | 189° |
| 2026-04-23 15:33 | 34.77368 | -106.81797 | 20823 ft | 385 kts | 189° |
| 2026-04-23 15:33 | 34.74712 | -106.81820 | 21519 ft | 389 kts | 189° |
| 2026-04-23 15:33 | 34.72008 | -106.81836 | 22402 ft | 388 kts | 189° |
| 2026-04-23 15:33 | 34.69297 | -106.81854 | 22994 ft | 395 kts | 189° |
| 2026-04-23 15:34 | 34.66515 | -106.81873 | 23718 ft | 397 kts | 189° |
| 2026-04-23 15:34 | 34.63741 | -106.81890 | 24396 ft | 400 kts | 189° |
| 2026-04-23 15:34 | 34.60961 | -106.81908 | 24914 ft | 406 kts | 189° |
| 2026-04-23 15:34 | 34.58118 | -106.81929 | 25530 ft | 409 kts | 189° |
| 2026-04-23 15:35 | 34.55277 | -106.81947 | 26113 ft | 413 kts | 189° |
| 2026-04-23 15:35 | 34.52383 | -106.81961 | 26765 ft | 415 kts | 190° |
| 2026-04-23 15:35 | 34.49515 | -106.81979 | 27235 ft | 420 kts | 190° |
| 2026-04-23 15:35 | 34.46561 | -106.81999 | 27794 ft | 424 kts | 189° |
| 2026-04-23 15:36 | 34.43625 | -106.82016 | 28297 ft | 429 kts | 190° |
| 2026-04-23 15:36 | 34.40619 | -106.82124 | 28825 ft | 428 kts | 193° |
| 2026-04-23 15:36 | 34.37714 | -106.82546 | 29455 ft | 419 kts | 201° |
| 2026-04-23 15:36 | 34.34945 | -106.83511 | 29960 ft | 411 kts | 210° |
| 2026-04-23 15:37 | 34.32378 | -106.85007 | 30090 ft | 408 kts | 219° |
| 2026-04-23 15:37 | 34.30094 | -106.86929 | 30092 ft | 394 kts | 227° |
| 2026-04-23 15:37 | 34.28704 | -106.88361 | 30091 ft | 390 kts | 229° |
| 2026-04-23 15:38 | 34.24167 | -106.93683 | 30096 ft | 388 kts | 233° |
| 2026-04-23 15:38 | 34.20422 | -106.98332 | 30088 ft | 388 kts | 233° |
| 2026-04-23 15:39 | 34.16659 | -107.02979 | 30094 ft | 388 kts | 232° |
| 2026-04-23 15:39 | 34.12865 | -107.07619 | 30096 ft | 385 kts | 233° |
| 2026-04-23 15:40 | 34.09094 | -107.12208 | 30102 ft | 388 kts | 233° |
| 2026-04-23 15:40 | 34.05302 | -107.16804 | 30106 ft | 385 kts | 232° |
| 2026-04-23 15:41 | 34.01512 | -107.21388 | 30125 ft | 386 kts | 232° |
| 2026-04-23 15:41 | 33.97738 | -107.25951 | 30128 ft | 384 kts | 233° |
| 2026-04-23 15:42 | 33.93948 | -107.30529 | 30131 ft | 387 kts | 232° |
| 2026-04-23 15:42 | 33.90139 | -107.35117 | 30139 ft | 387 kts | 233° |
| 2026-04-23 15:43 | 33.86355 | -107.39670 | 30140 ft | 385 kts | 233° |
| 2026-04-23 15:43 | 33.82555 | -107.44242 | 30142 ft | 387 kts | 233° |
| 2026-04-23 15:44 | 33.78754 | -107.48804 | 30141 ft | 383 kts | 233° |
| 2026-04-23 15:44 | 33.74999 | -107.53301 | 30152 ft | 383 kts | 232° |
| 2026-04-23 15:45 | 33.71186 | -107.57867 | 30148 ft | 385 kts | 232° |
| 2026-04-23 15:45 | 33.67399 | -107.62395 | 30161 ft | 386 kts | 232° |
| 2026-04-23 15:46 | 33.63640 | -107.66885 | 30173 ft | 383 kts | 232° |
| 2026-04-23 15:46 | 33.59849 | -107.71410 | 30175 ft | 387 kts | 232° |
| 2026-04-23 15:47 | 33.56037 | -107.75950 | 30181 ft | 384 kts | 232° |
| 2026-04-23 15:47 | 33.52245 | -107.80463 | 30184 ft | 388 kts | 232° |
| 2026-04-23 15:48 | 33.48428 | -107.84994 | 30171 ft | 384 kts | 232° |
| 2026-04-23 15:48 | 33.44629 | -107.89500 | 30181 ft | 384 kts | 232° |
| 2026-04-23 15:49 | 33.40838 | -107.93990 | 30183 ft | 384 kts | 232° |
| 2026-04-23 15:49 | 33.37025 | -107.98502 | 30185 ft | 384 kts | 232° |
| 2026-04-23 15:50 | 33.33229 | -108.02985 | 30184 ft | 386 kts | 232° |
| 2026-04-23 15:50 | 33.29406 | -108.07494 | 30187 ft | 384 kts | 232° |
| 2026-04-23 15:51 | 33.25613 | -108.11965 | 30183 ft | 386 kts | 232° |
| 2026-04-23 15:51 | 33.21789 | -108.16467 | 30185 ft | 384 kts | 232° |
| 2026-04-23 15:52 | 33.17981 | -108.20943 | 30190 ft | 382 kts | 232° |
| 2026-04-23 15:52 | 33.14190 | -108.25392 | 30185 ft | 383 kts | 232° |
| 2026-04-23 15:53 | 33.10416 | -108.29815 | 30187 ft | 385 kts | 232° |
| 2026-04-23 15:53 | 33.06631 | -108.34242 | 30185 ft | 375 kts | 232° |
| 2026-04-23 15:54 | 33.02904 | -108.38593 | 30183 ft | 375 kts | 232° |
| 2026-04-23 15:54 | 32.99192 | -108.42936 | 30179 ft | 377 kts | 232° |
| 2026-04-23 15:55 | 32.95473 | -108.47275 | 30163 ft | 375 kts | 232° |
| 2026-04-23 15:55 | 32.91732 | -108.51635 | 30161 ft | 379 kts | 232° |
| 2026-04-23 15:56 | 32.88012 | -108.55962 | 30154 ft | 375 kts | 232° |
| 2026-04-23 15:56 | 32.84272 | -108.60309 | 30150 ft | 377 kts | 232° |
| 2026-04-23 15:57 | 32.80522 | -108.64659 | 30141 ft | 377 kts | 232° |
| 2026-04-23 15:57 | 32.76775 | -108.69005 | 30144 ft | 379 kts | 232° |
| 2026-04-23 15:58 | 32.73029 | -108.73347 | 30146 ft | 378 kts | 232° |
| 2026-04-23 15:58 | 32.69276 | -108.77683 | 30143 ft | 377 kts | 231° |
| 2026-04-23 15:59 | 32.65522 | -108.82017 | 30142 ft | 378 kts | 232° |
| 2026-04-23 15:59 | 32.61756 | -108.86361 | 30124 ft | 378 kts | 231° |
| 2026-04-23 15:59 | 32.59844 | -108.88567 | 29886 ft | 382 kts | 231° |
| 2026-04-23 16:00 | 32.57953 | -108.90743 | 29632 ft | 376 kts | 231° |
| 2026-04-23 16:00 | 32.56103 | -108.92872 | 29374 ft | 375 kts | 231° |
| 2026-04-23 16:00 | 32.54223 | -108.95046 | 29126 ft | 375 kts | 231° |
| 2026-04-23 16:00 | 32.52371 | -108.97188 | 28872 ft | 374 kts | 231° |
| 2026-04-23 16:01 | 32.50520 | -108.99323 | 28632 ft | 374 kts | 231° |
| 2026-04-23 16:01 | 32.48660 | -109.01464 | 28380 ft | 371 kts | 230° |
| 2026-04-23 16:01 | 32.46807 | -109.03590 | 28121 ft | 371 kts | 231° |
| 2026-04-23 16:01 | 32.44943 | -109.05726 | 27877 ft | 370 kts | 230° |
| 2026-04-23 16:02 | 32.43106 | -109.07828 | 27623 ft | 371 kts | 231° |
| 2026-04-23 16:02 | 32.41248 | -109.09952 | 27350 ft | 367 kts | 230° |
| 2026-04-23 16:02 | 32.39444 | -109.12006 | 26947 ft | 361 kts | 230° |
| 2026-04-23 16:02 | 32.37653 | -109.14047 | 26444 ft | 358 kts | 230° |
| 2026-04-23 16:03 | 32.35857 | -109.16096 | 25888 ft | 356 kts | 230° |
| 2026-04-23 16:03 | 32.34084 | -109.18119 | 25329 ft | 354 kts | 230° |
| 2026-04-23 16:03 | 32.32339 | -109.20110 | 24770 ft | 352 kts | 230° |
| 2026-04-23 16:03 | 32.30595 | -109.22105 | 24202 ft | 349 kts | 230° |
| 2026-04-23 16:04 | 32.28981 | -109.24239 | 23639 ft | 344 kts | 237° |
| 2026-04-23 16:04 | 32.27734 | -109.26572 | 23169 ft | 338 kts | 246° |
| 2026-04-23 16:04 | 32.26825 | -109.29170 | 23103 ft | 343 kts | 253° |
| 2026-04-23 16:04 | 32.26168 | -109.31902 | 23100 ft | 349 kts | 258° |
| 2026-04-23 16:05 | 32.25852 | -109.33753 | 23099 ft | 346 kts | 261° |
| 2026-04-23 16:05 | 32.25363 | -109.37502 | 23105 ft | 346 kts | 262° |
| 2026-04-23 16:05 | 32.25040 | -109.40311 | 23108 ft | 348 kts | 263° |
| 2026-04-23 16:05 | 32.24710 | -109.43154 | 23105 ft | 346 kts | 262° |
| 2026-04-23 16:06 | 32.24375 | -109.45959 | 23111 ft | 347 kts | 262° |
| 2026-04-23 16:06 | 32.24030 | -109.48765 | 23112 ft | 347 kts | 262° |
| 2026-04-23 16:06 | 32.23677 | -109.51583 | 23109 ft | 346 kts | 262° |
| 2026-04-23 16:06 | 32.23324 | -109.54364 | 23106 ft | 348 kts | 262° |
| 2026-04-23 16:07 | 32.22958 | -109.57213 | 23116 ft | 348 kts | 262° |
| 2026-04-23 16:07 | 32.22598 | -109.60001 | 22898 ft | 348 kts | 262° |
| 2026-04-23 16:07 | 32.22232 | -109.62835 | 22567 ft | 343 kts | 262° |
| 2026-04-23 16:07 | 32.21874 | -109.65592 | 22091 ft | 339 kts | 261° |
| 2026-04-23 16:08 | 32.21517 | -109.68330 | 21548 ft | 337 kts | 261° |
| 2026-04-23 16:08 | 32.21172 | -109.71012 | 21146 ft | 332 kts | 262° |
| 2026-04-23 16:08 | 32.20891 | -109.73719 | 21121 ft | 335 kts | 264° |
| 2026-04-23 16:08 | 32.20663 | -109.76498 | 21113 ft | 340 kts | 265° |
| 2026-04-23 16:09 | 32.20454 | -109.79262 | 21115 ft | 340 kts | 265° |
| 2026-04-23 16:09 | 32.20244 | -109.82027 | 21115 ft | 339 kts | 265° |
| 2026-04-23 16:09 | 32.20027 | -109.84799 | 21116 ft | 339 kts | 265° |
| 2026-04-23 16:09 | 32.19804 | -109.87595 | 21123 ft | 342 kts | 264° |
| 2026-04-23 16:10 | 32.19577 | -109.90365 | 21127 ft | 341 kts | 264° |
| 2026-04-23 16:10 | 32.19346 | -109.93149 | 21126 ft | 340 kts | 264° |
| 2026-04-23 16:10 | 32.19114 | -109.95925 | 21127 ft | 340 kts | 264° |
| 2026-04-23 16:10 | 32.18881 | -109.98691 | 21108 ft | 340 kts | 264° |
| 2026-04-23 16:11 | 32.18648 | -110.01442 | 20659 ft | 337 kts | 265° |
| 2026-04-23 16:11 | 32.18414 | -110.04199 | 20104 ft | 335 kts | 265° |
| 2026-04-23 16:11 | 32.18184 | -110.06899 | 19537 ft | 334 kts | 265° |
| 2026-04-23 16:11 | 32.17952 | -110.09615 | 18961 ft | 332 kts | 265° |
| 2026-04-23 16:12 | 32.17723 | -110.12287 | 18404 ft | 330 kts | 264° |
| 2026-04-23 16:12 | 32.17493 | -110.14960 | 17826 ft | 328 kts | 265° |
| 2026-04-23 16:12 | 32.17265 | -110.17619 | 17224 ft | 328 kts | 265° |
| 2026-04-23 16:12 | 32.17036 | -110.20280 | 16651 ft | 326 kts | 265° |
| 2026-04-23 16:13 | 32.16807 | -110.22935 | 16104 ft | 324 kts | 265° |
| 2026-04-23 16:13 | 32.16356 | -110.28151 | 14996 ft | 320 kts | 265° |
| 2026-04-23 16:13 | 32.16128 | -110.30772 | 14458 ft | 319 kts | 265° |
| 2026-04-23 16:14 | 32.15982 | -110.33339 | 14074 ft | 313 kts | 269° |
| 2026-04-23 16:14 | 32.16019 | -110.35876 | 14022 ft | 310 kts | 273° |
| 2026-04-23 16:14 | 32.16156 | -110.38409 | 13670 ft | 305 kts | 274° |
| 2026-04-23 16:14 | 32.16324 | -110.40884 | 13193 ft | 304 kts | 274° |
| 2026-04-23 16:15 | 32.16491 | -110.43340 | 12694 ft | 303 kts | 274° |
| 2026-04-23 16:15 | 32.16647 | -110.45805 | 12184 ft | 303 kts | 274° |
| 2026-04-23 16:15 | 32.16793 | -110.48277 | 11679 ft | 302 kts | 274° |
| 2026-04-23 16:15 | 32.16935 | -110.50764 | 11159 ft | 302 kts | 274° |
| 2026-04-23 16:16 | 32.17073 | -110.53228 | 10716 ft | 299 kts | 274° |
| 2026-04-23 16:16 | 32.17207 | -110.55627 | 10458 ft | 289 kts | 274° |
| 2026-04-23 16:16 | 32.17334 | -110.57935 | 10342 ft | 276 kts | 274° |
| 2026-04-23 16:16 | 32.17457 | -110.60149 | 10226 ft | 264 kts | 274° |
| 2026-04-23 16:17 | 32.17575 | -110.62283 | 10046 ft | 256 kts | 274° |
| 2026-04-23 16:17 | 32.17688 | -110.64341 | 10029 ft | 255 kts | 273° |
| 2026-04-23 16:17 | 32.17804 | -110.66451 | 10016 ft | 257 kts | 273° |
| 2026-04-23 16:17 | 32.17918 | -110.68550 | 10013 ft | 257 kts | 273° |
| 2026-04-23 16:18 | 32.18032 | -110.70642 | 10007 ft | 259 kts | 273° |
| 2026-04-23 16:18 | 32.18148 | -110.72777 | 10000 ft | 259 kts | 273° |
| 2026-04-23 16:18 | 32.18263 | -110.74895 | 9998 ft | 257 kts | 273° |
| 2026-04-23 16:18 | 32.18375 | -110.76972 | 9997 ft | 257 kts | 273° |
| 2026-04-23 16:19 | 32.18486 | -110.79035 | 9943 ft | 247 kts | 273° |
| 2026-04-23 16:19 | 32.18592 | -110.81016 | 9758 ft | 240 kts | 273° |
| 2026-04-23 16:19 | 32.18698 | -110.82981 | 9426 ft | 239 kts | 273° |
| 2026-04-23 16:19 | 32.18863 | -110.84926 | 9098 ft | 239 kts | 280° |
| 2026-04-23 16:20 | 32.19523 | -110.86746 | 9003 ft | 254 kts | 304° |
| 2026-04-23 16:20 | 32.20764 | -110.88307 | 8988 ft | 263 kts | 314° |
| 2026-04-23 16:20 | 32.22121 | -110.89767 | 8986 ft | 263 kts | 314° |
| 2026-04-23 16:20 | 32.23453 | -110.91226 | 8987 ft | 263 kts | 313° |
| 2026-04-23 16:21 | 32.24778 | -110.92738 | 8988 ft | 263 kts | 312° |
| 2026-04-23 16:21 | 32.26065 | -110.94240 | 8991 ft | 263 kts | 312° |
| 2026-04-23 16:21 | 32.27362 | -110.95764 | 8876 ft | 259 kts | 312° |
| 2026-04-23 16:21 | 32.28634 | -110.97261 | 8595 ft | 256 kts | 312° |
| 2026-04-23 16:22 | 32.29881 | -110.98730 | 8263 ft | 255 kts | 312° |
| 2026-04-23 16:22 | 32.31139 | -111.00203 | 7921 ft | 255 kts | 313° |
| 2026-04-23 16:22 | 32.32430 | -111.01633 | 7579 ft | 254 kts | 315° |
| 2026-04-23 16:22 | 32.33738 | -111.03050 | 7284 ft | 251 kts | 315° |
| 2026-04-23 16:23 | 32.34997 | -111.04421 | 7190 ft | 240 kts | 315° |
| 2026-04-23 16:23 | 32.36186 | -111.05716 | 7130 ft | 223 kts | 315° |
| 2026-04-23 16:23 | 32.37302 | -111.06918 | 6992 ft | 211 kts | 315° |
| 2026-04-23 16:23 | 32.38345 | -111.08034 | 6970 ft | 194 kts | 315° |
| 2026-04-23 16:24 | 32.39301 | -111.09081 | 6969 ft | 177 kts | 308° |
| 2026-04-23 16:24 | 32.39815 | -111.10329 | 6986 ft | 176 kts | 276° |
| 2026-04-23 16:24 | 32.39679 | -111.11765 | 6987 ft | 171 kts | 251° |
| 2026-04-23 16:24 | 32.39096 | -111.12925 | 6955 ft | 165 kts | 229° |
| 2026-04-23 16:25 | 32.38136 | -111.13689 | 6754 ft | 169 kts | 208° |
| 2026-04-23 16:25 | 32.37072 | -111.14271 | 6547 ft | 162 kts | 209° |
| 2026-04-23 16:25 | 32.36075 | -111.14834 | 6296 ft | 157 kts | 209° |
| 2026-04-23 16:25 | 32.35066 | -111.15327 | 6047 ft | 158 kts | 193° |
| 2026-04-23 16:26 | 32.33989 | -111.15122 | 5820 ft | 162 kts | 159° |
| 2026-04-23 16:26 | 32.32954 | -111.14572 | 5581 ft | 162 kts | 158° |
| 2026-04-23 16:26 | 32.31918 | -111.14049 | 5337 ft | 160 kts | 159° |
| 2026-04-23 16:26 | 32.30910 | -111.13550 | 5154 ft | 156 kts | 159° |
| 2026-04-23 16:27 | 32.29894 | -111.13050 | 5175 ft | 158 kts | 159° |
| 2026-04-23 16:27 | 32.28871 | -111.12557 | 5167 ft | 156 kts | 161° |
| 2026-04-23 16:27 | 32.27846 | -111.12109 | 5172 ft | 158 kts | 160° |
| 2026-04-23 16:27 | 32.26868 | -111.11504 | 5168 ft | 159 kts | 147° |
| 2026-04-23 16:28 | 32.26002 | -111.10681 | 5167 ft | 160 kts | 140° |
| 2026-04-23 16:28 | 32.25184 | -111.09787 | 5168 ft | 161 kts | 138° |
| 2026-04-23 16:28 | 32.24377 | -111.08865 | 5166 ft | 161 kts | 137° |
| 2026-04-23 16:28 | 32.23582 | -111.07951 | 5223 ft | 158 kts | 137° |
| 2026-04-23 16:29 | 32.22784 | -111.07051 | 5091 ft | 163 kts | 138° |
| 2026-04-23 16:29 | 32.21959 | -111.06134 | 5111 ft | 160 kts | 136° |
| 2026-04-23 16:29 | 32.21173 | -111.05206 | 5111 ft | 161 kts | 135° |
| 2026-04-23 16:29 | 32.20394 | -111.04247 | 5121 ft | 161 kts | 135° |
| 2026-04-23 16:30 | 32.19615 | -111.03266 | 4934 ft | 167 kts | 133° |
| 2026-04-23 16:30 | 32.18843 | -111.02254 | 4661 ft | 167 kts | 133° |
| 2026-04-23 16:30 | 32.18031 | -111.01240 | 4339 ft | 168 kts | 136° |
| 2026-04-23 16:30 | 32.17185 | -111.00307 | 4067 ft | 165 kts | 140° |
| 2026-04-23 16:31 | 32.16309 | -110.99419 | 3746 ft | 165 kts | 137° |
| 2026-04-23 16:31 | 32.15514 | -110.98495 | 3556 ft | 160 kts | 135° |
| 2026-04-23 16:31 | 32.14704 | -110.97578 | 3351 ft | 158 kts | 136° |
| 2026-04-23 16:31 | 32.13952 | -110.96685 | 3212 ft | 148 kts | 136° |
| 2026-04-23 16:32 | 32.13206 | -110.95815 | 2871 ft | 153 kts | 134° |
| 2026-04-23 16:32 | 32.12467 | -110.94945 | 2657 ft | 146 kts | 135° |
| 2026-04-23 16:32 | 32.11792 | -110.94157 | 2602 ft | 115 kts | 134° |
| 2026-04-23 16:32 | 32.11417 | -110.93717 | 2614 ft | 49 kts | 134° |
| 2026-04-23 16:33 | 32.11237 | -110.93500 | 2620 ft | 27 kts | 134° |
| 2026-04-23 16:33 | 32.11143 | -110.93368 | 2624 ft | 16 kts | 111° |
| 2026-04-23 16:33 | 32.11134 | -110.93248 | 2625 ft | 12 kts | 67° |
| 2026-04-23 16:33 | 32.11206 | -110.93224 | 2624 ft | 13 kts | 323° |
| 2026-04-23 16:34 | 32.11275 | -110.93301 | 2622 ft | 14 kts | 315° |
| 2026-04-23 16:34 | 32.11364 | -110.93404 | 2620 ft | 21 kts | 315° |
| 2026-04-23 16:34 | 32.11478 | -110.93540 | 2617 ft | 24 kts | 315° |
| 2026-04-23 16:34 | 32.11603 | -110.93685 | 2612 ft | 26 kts | 315° |
| 2026-04-23 16:35 | 32.11731 | -110.93836 | 2607 ft | 15 kts | 314° |
| 2026-04-23 16:35 | 32.11809 | -110.93928 | 2605 ft | 9 kts | 315° |
| 2026-04-23 16:35 | 32.11865 | -110.93964 | 2604 ft | 10 kts | 15° |
| 2026-04-23 16:35 | 32.11938 | -110.93948 | 2603 ft | 12 kts | 329° |
| 2026-04-23 16:36 | 32.11993 | -110.93994 | 2602 ft | 7 kts | 348° |
| 2026-04-23 16:36 | 32.12028 | -110.93982 | 2600 ft | 4 kts | 30° |
| 2026-04-23 16:36 | 32.12049 | -110.93966 | 2600 ft | 1 kts | 34° |
| 2026-04-23 16:36 | 32.12056 | -110.93961 | 2599 ft | 0 kts | 34° |